Time;durP1;ratioP1;P1;durP2;ratioP2;P2;SDS_P1;SDS_P2;PMS_P1;PMS_P2;Temp;Humidity;BMP_temperature;BMP_pressure;BME280_temperature;BME280_humidity;BME280_pressure;Samples;Min_cycle;Max_cycle;Signal;HPM_P1;HPM_P2
2022/01/14 00:10:32;;;;;;;20.10;11.30;;;0.60;99.90;;;;;;558262;22;20442;-79
2022/01/14 00:12:39;;;;;;;18.67;10.48;;;0.60;99.90;;;;;;4169812;28;20058;-84
2022/01/14 00:14:44;;;;;;;28.63;11.70;;;0.60;99.90;;;;;;4169362;28;20437;-82
2022/01/14 00:16:48;;;;;;;21.45;11.70;;;0.50;99.90;;;;;;4165824;28;20081;-82
2022/01/14 00:18:50;;;;;;;25.52;12.30;;;0.50;99.90;;;;;;4157950;28;20061;-82
2022/01/14 00:20:52;;;;;;;20.30;11.02;;;0.50;99.90;;;;;;4154952;28;20046;-81
2022/01/14 00:22:54;;;;;;;20.98;10.57;;;0.40;99.90;;;;;;4171595;28;20057;-84
2022/01/14 00:31:54;;;;;;;21.77;11.05;;;0.40;99.90;;;;;;4152473;28;20125;-82
2022/01/14 00:33:57;;;;;;;15.88;9.88;;;0.30;99.90;;;;;;4151758;28;20081;-82
2022/01/14 00:35:59;;;;;;;19.90;10.80;;;0.30;99.90;;;;;;4152073;28;20113;-82
2022/01/14 00:38:01;;;;;;;18.30;10.30;;;0.30;99.90;;;;;;4151964;28;20066;-82
2022/01/14 00:40:04;;;;;;;20.45;11.38;;;0.50;99.90;;;;;;4150388;28;20062;-82
2022/01/14 00:42:07;;;;;;;20.63;11.35;;;0.40;99.90;;;;;;4152399;28;20053;-82
2022/01/14 00:44:13;;;;;;;21.95;11.80;;;0.40;99.90;;;;;;4134698;28;20058;-81
2022/01/14 00:46:15;;;;;;;26.83;11.43;;;0.40;99.90;;;;;;4150403;28;20402;-81
2022/01/14 00:48:19;;;;;;;20.63;10.55;;;0.30;99.90;;;;;;4134225;28;20121;-81
2022/01/14 00:50:21;;;;;;;18.15;11.10;;;0.40;99.90;;;;;;4162088;28;20050;-82
2022/01/14 00:52:23;;;;;;;23.25;11.93;;;0.40;99.90;;;;;;4150224;28;20046;-80
2022/01/14 00:54:26;;;;;;;19.80;10.35;;;0.40;99.90;;;;;;4150334;28;20066;-81
2022/01/14 00:56:34;;;;;;;23.33;11.35;;;0.40;99.90;;;;;;4150049;28;20105;-81
2022/01/14 01:00:57;;;;;;;14.95;9.02;;;0.30;99.90;;;;;;4150885;28;20046;-80
2022/01/14 01:03:00;;;;;;;17.25;8.90;;;0.30;99.90;;;;;;4150220;28;20053;-80
2022/01/14 01:05:02;;;;;;;15.35;8.63;;;0.30;99.90;;;;;;4148903;28;20050;-81
2022/01/14 01:07:08;;;;;;;20.75;9.38;;;0.30;99.90;;;;;;4149653;28;20046;-80
2022/01/14 01:09:13;;;;;;;21.58;9.60;;;0.20;99.90;;;;;;4166168;28;20096;-79
2022/01/14 01:11:17;;;;;;;14.60;8.73;;;0.20;99.90;;;;;;4154920;28;20091;-80
2022/01/14 01:13:28;;;;;;;15.95;8.75;;;0.20;99.90;;;;;;4167557;28;20060;-80
2022/01/14 01:15:30;;;;;;;16.88;8.85;;;0.20;99.90;;;;;;4149967;28;20050;-79
2022/01/14 01:17:33;;;;;;;16.85;9.00;;;0.20;99.90;;;;;;4156890;28;20207;-80
2022/01/14 01:19:35;;;;;;;17.20;8.80;;;0.20;99.90;;;;;;4166105;28;20049;-81
2022/01/14 01:21:38;;;;;;;17.38;8.95;;;0.20;99.90;;;;;;4166027;28;20057;-79
2022/01/14 01:23:40;;;;;;;17.08;7.55;;;0.10;99.90;;;;;;4166074;28;20049;-79
2022/01/14 01:25:51;;;;;;;18.77;7.57;;;0.10;99.90;;;;;;4164207;28;20124;-79
2022/01/14 01:27:54;;;;;;;13.15;7.25;;;0.10;99.90;;;;;;4163011;28;20123;-79
2022/01/14 01:30:12;;;;;;;17.38;7.50;;;0.10;99.90;;;;;;4156338;28;20048;-80
2022/01/14 01:32:14;;;;;;;17.42;7.30;;;0.20;99.90;;;;;;4152169;28;20053;-79
2022/01/14 01:34:19;;;;;;;15.02;6.72;;;0.20;99.90;;;;;;4166249;28;20787;-80
2022/01/14 01:36:20;;;;;;;16.30;7.20;;;0.30;99.90;;;;;;4164147;28;20065;-79
2022/01/14 01:38:23;;;;;;;16.67;6.25;;;0.60;99.90;;;;;;4165795;28;20413;-79
2022/01/14 01:40:27;;;;;;;12.50;6.15;;;0.80;99.90;;;;;;4165987;28;20056;-79
2022/01/14 01:42:30;;;;;;;14.95;6.70;;;0.90;99.90;;;;;;4165536;28;20060;-78
2022/01/14 01:44:34;;;;;;;10.23;5.57;;;1.00;99.90;;;;;;4165823;28;20164;-79
2022/01/14 01:46:39;;;;;;;16.80;7.47;;;1.10;99.90;;;;;;4164933;28;20042;-79
2022/01/14 01:48:41;;;;;;;15.40;6.35;;;1.10;99.90;;;;;;4165613;28;20045;-79
2022/01/14 01:50:43;;;;;;;12.75;6.70;;;1.10;99.90;;;;;;4159653;28;20049;-80
2022/01/14 01:52:46;;;;;;;12.10;6.63;;;1.00;99.90;;;;;;4159500;28;20057;-81
2022/01/14 01:54:48;;;;;;;9.23;5.90;;;0.90;99.90;;;;;;4151303;28;20096;-79
2022/01/14 01:56:50;;;;;;;19.67;6.47;;;0.90;99.90;;;;;;4162205;28;20056;-79
2022/01/14 01:58:56;;;;;;;11.10;6.47;;;0.90;99.90;;;;;;4162651;28;20049;-80
2022/01/14 02:00:58;;;;;;;13.27;6.35;;;0.90;99.90;;;;;;4166169;28;20057;-80
2022/01/14 02:03:02;;;;;;;11.98;6.88;;;0.80;99.90;;;;;;4164423;28;20057;-78
2022/01/14 02:05:05;;;;;;;16.30;7.18;;;0.80;99.90;;;;;;4165020;28;20558;-79
2022/01/14 02:07:07;;;;;;;13.95;6.07;;;0.70;99.90;;;;;;4154980;28;20496;-79
2022/01/14 02:09:12;;;;;;;11.50;6.30;;;0.70;99.90;;;;;;4164463;28;20161;-79
2022/01/14 02:11:14;;;;;;;13.95;6.50;;;0.60;99.90;;;;;;4152492;28;20054;-77
2022/01/14 02:13:17;;;;;;;13.13;6.47;;;0.60;99.90;;;;;;4148153;28;20054;-79
2022/01/14 02:22:10;;;;;;;10.82;5.32;;;0.40;99.90;;;;;;4156249;28;20505;-81
2022/01/14 02:22:53;;;;;;;12.68;5.55;;;0.40;99.90;;;;;;4163383;28;20081;-79
2022/01/14 02:24:58;;;;;;;11.02;5.78;;;0.40;99.90;;;;;;4156469;28;20485;-79
2022/01/14 02:27:01;;;;;;;11.90;5.70;;;0.40;99.90;;;;;;4148684;28;20314;-80
2022/01/14 02:29:02;;;;;;;8.35;5.05;;;0.40;99.90;;;;;;4148147;28;20045;-82
2022/01/14 02:31:04;;;;;;;11.93;6.05;;;0.40;99.90;;;;;;4159308;28;20050;-80
2022/01/14 02:33:08;;;;;;;13.32;5.68;;;0.40;99.90;;;;;;4162192;28;20127;-79
2022/01/14 02:35:10;;;;;;;14.82;5.60;;;0.30;99.90;;;;;;4164604;28;20104;-82
2022/01/14 02:37:20;;;;;;;17.00;6.18;;;0.30;99.90;;;;;;4166177;28;20083;-80
2022/01/14 02:39:22;;;;;;;14.00;5.80;;;0.30;99.90;;;;;;4164334;28;20119;-79
2022/01/14 02:41:24;;;;;;;12.02;4.95;;;0.20;99.90;;;;;;4165803;28;20057;-81
2022/01/14 02:43:27;;;;;;;12.05;5.78;;;0.20;99.90;;;;;;4165527;28;20049;-81
2022/01/14 02:45:32;;;;;;;8.77;5.40;;;0.20;99.90;;;;;;4166363;28;20050;-87
2022/01/14 02:47:34;;;;;;;11.15;6.18;;;0.10;99.90;;;;;;4164658;28;20045;-85
2022/01/14 02:49:37;;;;;;;12.70;6.38;;;0.10;99.90;;;;;;4160872;28;20104;-80
2022/01/14 02:51:40;;;;;;;12.38;5.85;;;0.00;99.90;;;;;;4151800;28;20049;-80
2022/01/14 02:53:45;;;;;;;13.82;6.63;;;0.00;99.90;;;;;;4163816;28;20092;-81
2022/01/14 02:55:47;;;;;;;;;;;0.00;99.90;;;;;;4164007;28;20041;-81
2022/01/14 02:57:53;;;;;;;13.73;7.05;;;0.00;99.90;;;;;;4153232;28;19965;-83
2022/01/14 02:59:57;;;;;;;11.82;6.38;;;0.00;99.90;;;;;;4160135;28;20057;-81
2022/01/14 03:02:02;;;;;;;12.95;6.70;;;0.00;99.90;;;;;;4164419;28;20053;-80
2022/01/14 03:04:05;;;;;;;;;;;0.00;99.90;;;;;;4158939;28;20061;-81
2022/01/14 03:06:07;;;;;;;14.30;6.38;;;0.00;99.90;;;;;;4148540;28;19956;-83
2022/01/14 03:08:10;;;;;;;14.13;7.30;;;0.00;99.90;;;;;;4147589;28;20596;-82
2022/01/14 03:10:16;;;;;;;13.18;6.47;;;-0.10;99.90;;;;;;4147429;28;20113;-80
2022/01/14 03:12:18;;;;;;;11.60;6.40;;;-0.10;99.90;;;;;;4163658;28;20049;-81
2022/01/14 03:14:24;;;;;;;11.32;6.07;;;-0.10;99.90;;;;;;4160399;28;20076;-80
2022/01/14 03:16:27;;;;;;;13.88;7.03;;;-0.10;99.90;;;;;;4163589;28;20061;-81
2022/01/14 03:18:34;;;;;;;12.60;6.40;;;-0.10;99.90;;;;;;4153012;28;20080;-82
2022/01/14 03:20:50;;;;;;;14.32;6.75;;;-0.10;99.90;;;;;;4150228;28;20054;-80
2022/01/14 03:23:03;;;;;;;9.55;5.72;;;-0.10;99.90;;;;;;4147781;28;20429;-82
2022/01/14 03:27:27;;;;;;;13.02;5.55;;;-0.10;99.90;;;;;;4154219;28;20073;-82
2022/01/14 03:29:29;;;;;;;12.35;5.88;;;-0.10;99.90;;;;;;4160889;28;20046;-80
2022/01/14 03:31:30;;;;;;;9.80;5.70;;;0.00;99.90;;;;;;4163281;28;20080;-80
2022/01/14 03:33:32;;;;;;;17.50;6.40;;;0.00;99.90;;;;;;4147743;28;20129;-83
2022/01/14 03:35:34;;;;;;;9.18;5.50;;;-0.10;99.90;;;;;;4160423;28;20072;-81
2022/01/14 03:37:37;;;;;;;14.48;6.72;;;-0.10;99.90;;;;;;4162215;28;20536;-83
2022/01/14 03:39:38;;;;;;;11.82;5.88;;;-0.10;99.90;;;;;;4164077;28;20056;-81
2022/01/14 03:41:41;;;;;;;9.98;5.65;;;-0.20;99.90;;;;;;4163539;28;20066;-80
2022/01/14 03:43:43;;;;;;;11.88;7.75;;;-0.20;99.90;;;;;;4163737;28;20092;-80
2022/01/14 03:45:46;;;;;;;15.55;7.95;;;-0.20;99.90;;;;;;4161420;28;20052;-82
2022/01/14 03:47:48;;;;;;;10.00;7.03;;;-0.20;99.90;;;;;;4155590;28;20129;-81
2022/01/14 03:49:50;;;;;;;11.65;6.97;;;-0.30;99.90;;;;;;4159493;28;21042;-80
2022/01/14 03:51:51;;;;;;;10.55;5.70;;;-0.30;99.90;;;;;;4149411;28;20057;-80
2022/01/14 03:53:54;;;;;;;9.93;6.05;;;-0.40;99.90;;;;;;4166886;28;20053;-82
2022/01/14 03:55:56;;;;;;;13.15;6.20;;;-0.40;99.90;;;;;;4166382;28;20046;-80
2022/01/14 03:58:12;;;;;;;12.70;6.18;;;-0.30;99.90;;;;;;4164189;28;20112;-81
2022/01/14 04:00:15;;;;;;;10.90;6.15;;;-0.40;99.90;;;;;;4149739;28;20133;-81
2022/01/14 04:02:17;;;;;;;10.82;5.88;;;-0.40;99.90;;;;;;4150079;28;20053;-82
2022/01/14 04:04:19;;;;;;;12.57;6.53;;;-0.40;99.90;;;;;;4164976;28;20521;-80
2022/01/14 04:06:21;;;;;;;16.50;5.75;;;-0.50;99.90;;;;;;4151350;28;20061;-80
2022/01/14 04:10:50;;;;;;;10.85;5.95;;;-0.50;99.90;;;;;;4159447;28;20053;-83
2022/01/14 04:12:59;;;;;;;;;;;-0.50;99.90;;;;;;4166599;28;20081;-82
2022/01/14 04:17:03;;;;;;;13.15;6.50;;;-0.50;99.90;;;;;;4162166;28;20045;-79
2022/01/14 04:19:05;;;;;;;11.77;6.13;;;-0.50;99.90;;;;;;4166946;28;20052;-80
2022/01/14 04:21:07;;;;;;;10.98;6.22;;;-0.50;99.90;;;;;;4166148;28;20079;-81
2022/01/14 04:23:13;;;;;;;14.73;6.18;;;-0.50;99.90;;;;;;4166036;28;20057;-81
2022/01/14 04:25:15;;;;;;;13.38;5.70;;;-0.60;99.90;;;;;;4164363;28;20144;-80
2022/01/14 04:27:17;;;;;;;10.70;5.72;;;-0.50;99.90;;;;;;4157958;28;20751;-81
2022/01/14 04:29:19;;;;;;;12.50;6.32;;;-0.50;99.90;;;;;;4149189;28;20085;-80
2022/01/14 04:31:21;;;;;;;16.27;6.32;;;-0.50;99.90;;;;;;4159788;28;20046;-81
2022/01/14 04:33:26;;;;;;;12.55;6.65;;;-0.50;99.90;;;;;;4161343;28;20449;-81
2022/01/14 04:35:28;;;;;;;18.10;6.10;;;-0.60;99.90;;;;;;4162341;28;20125;-79
2022/01/14 04:37:30;;;;;;;13.02;6.85;;;-0.60;99.90;;;;;;4157310;28;20545;-79
2022/01/14 04:39:32;;;;;;;12.38;5.90;;;-0.70;99.90;;;;;;4165311;28;20089;-79
2022/01/14 04:41:35;;;;;;;14.57;5.70;;;-0.70;99.90;;;;;;4164974;28;20050;-79
2022/01/14 04:43:37;;;;;;;10.27;5.97;;;-0.80;99.90;;;;;;4165577;28;20475;-81
2022/01/14 04:45:54;;;;;;;12.55;6.45;;;-0.80;99.90;;;;;;4163472;28;20055;-79
2022/01/14 04:47:56;;;;;;;13.80;6.35;;;-0.80;99.90;;;;;;4164274;28;20069;-79
2022/01/14 04:50:00;;;;;;;15.18;7.53;;;-0.70;99.90;;;;;;4165383;28;20122;-77
2022/01/14 04:52:02;;;;;;;14.43;6.53;;;-0.70;99.90;;;;;;4155727;28;20106;-78
2022/01/14 04:54:04;;;;;;;12.65;5.82;;;-0.70;99.90;;;;;;4148201;28;20112;-78
2022/01/14 04:56:06;;;;;;;12.23;6.00;;;-0.70;99.90;;;;;;4148268;28;20049;-79
2022/01/14 04:58:08;;;;;;;9.27;5.78;;;-0.70;99.90;;;;;;4150269;28;20081;-78
2022/01/14 05:00:22;;;;;;;11.15;5.85;;;-0.70;99.90;;;;;;4156305;28;20084;-78
2022/01/14 05:02:25;;;;;;;11.88;5.78;;;-0.70;99.90;;;;;;4164692;28;20760;-76
2022/01/14 05:04:27;;;;;;;13.20;5.45;;;-0.70;99.90;;;;;;4169331;28;20044;-77
2022/01/14 05:06:30;;;;;;;15.48;6.25;;;-0.70;99.90;;;;;;4164360;28;20084;-77
2022/01/14 05:08:37;;;;;;;14.07;6.40;;;-0.70;99.90;;;;;;4162368;28;20136;-77
2022/01/14 05:12:50;;;;;;;12.93;5.40;;;-0.80;99.90;;;;;;4149046;28;20125;-76
2022/01/14 05:14:52;;;;;;;11.95;6.28;;;-0.70;99.90;;;;;;4148257;28;20133;-76
2022/01/14 05:16:54;;;;;;;11.10;5.82;;;-0.70;99.90;;;;;;4147675;28;20053;-77
2022/01/14 05:18:56;;;;;;;13.65;5.93;;;-0.80;99.90;;;;;;4147633;28;20086;-76
2022/01/14 05:20:57;;;;;;;15.45;6.32;;;-0.80;99.90;;;;;;4147926;28;20096;-75
2022/01/14 05:22:59;;;;;;;9.90;6.10;;;-0.90;99.90;;;;;;4153040;28;20088;-76
2022/01/14 05:25:02;;;;;;;10.10;6.32;;;-0.80;99.90;;;;;;4154906;28;20069;-74
2022/01/14 05:27:04;;;;;;;8.30;5.90;;;-0.80;99.90;;;;;;4164387;28;20084;-76
2022/01/14 05:29:06;;;;;;;18.08;6.82;;;-0.90;99.90;;;;;;4152177;28;20100;-75
2022/01/14 05:31:08;;;;;;;9.60;5.80;;;-0.80;99.90;;;;;;4163380;28;20133;-75
2022/01/14 05:33:10;;;;;;;17.25;8.35;;;-0.80;99.90;;;;;;4158067;28;20076;-74
2022/01/14 05:35:14;;;;;;;18.10;9.18;;;-0.90;99.90;;;;;;4154534;28;20057;-74
2022/01/14 05:37:16;;;;;;;29.08;15.18;;;-0.90;99.90;;;;;;4148161;28;20050;-75
2022/01/14 05:39:20;;;;;;;23.85;13.32;;;-0.80;99.90;;;;;;4163924;28;20080;-75
2022/01/14 05:41:22;;;;;;;24.10;13.57;;;-0.90;99.90;;;;;;4159412;28;20061;-74
2022/01/14 05:43:24;;;;;;;20.20;12.27;;;-0.90;99.90;;;;;;4163920;28;20045;-76
2022/01/14 05:45:26;;;;;;;24.40;10.85;;;-0.90;99.90;;;;;;4164118;28;20095;-74
2022/01/14 05:47:28;;;;;;;22.30;11.93;;;-0.90;99.90;;;;;;4162385;28;20068;-76
2022/01/14 05:49:30;;;;;;;18.60;10.50;;;-0.90;99.90;;;;;;4161677;28;20046;-75
2022/01/14 05:51:32;;;;;;;20.55;11.02;;;-0.90;99.90;;;;;;4160391;28;20052;-75
2022/01/14 05:53:34;;;;;;;22.08;11.30;;;-0.90;99.90;;;;;;4147668;28;20046;-75
2022/01/14 05:55:36;;;;;;;27.40;14.23;;;-0.90;99.90;;;;;;4153370;28;20053;-75
2022/01/14 05:57:39;;;;;;;25.75;12.98;;;-0.90;99.90;;;;;;4163320;28;20554;-75
2022/01/14 05:59:41;;;;;;;16.73;10.02;;;-0.90;99.90;;;;;;4162527;28;20108;-74
2022/01/14 06:01:44;;;;;;;17.88;8.65;;;-0.90;99.90;;;;;;4149999;28;20085;-75
2022/01/14 06:03:46;;;;;;;14.88;7.65;;;-0.90;99.90;;;;;;4155813;28;20081;-75
2022/01/14 06:05:49;;;;;;;19.40;8.35;;;-0.80;99.90;;;;;;4165047;28;20041;-75
2022/01/14 06:07:51;;;;;;;18.85;8.30;;;-0.70;99.90;;;;;;4164022;28;20812;-75
2022/01/14 06:09:53;;;;;;;17.80;9.00;;;-0.70;99.90;;;;;;4160626;28;20061;-74
2022/01/14 06:11:55;;;;;;;19.17;9.25;;;-0.70;99.90;;;;;;4148176;28;20084;-75
2022/01/14 06:13:57;;;;;;;16.25;9.00;;;-0.70;99.90;;;;;;4148264;28;20068;-75
2022/01/14 06:15:59;;;;;;;16.83;8.18;;;-0.70;99.90;;;;;;4148960;28;20683;-76
2022/01/14 06:18:01;;;;;;;15.55;8.52;;;-0.70;99.90;;;;;;4150661;28;20088;-76
2022/01/14 06:20:04;;;;;;;15.07;7.95;;;-0.60;99.90;;;;;;4164161;28;20564;-74
2022/01/14 06:22:06;;;;;;;18.65;8.93;;;-0.70;99.90;;;;;;4164333;28;20050;-74
2022/01/14 06:24:08;;;;;;;14.23;8.45;;;-0.80;99.90;;;;;;4154956;28;20046;-74
2022/01/14 06:26:10;;;;;;;18.27;8.73;;;-0.90;99.90;;;;;;4157908;28;20073;-74
2022/01/14 06:28:12;;;;;;;23.05;9.30;;;-0.90;99.90;;;;;;4163596;28;20056;-74
2022/01/14 06:30:14;;;;;;;20.48;9.20;;;-1.00;99.90;;;;;;4153613;28;20729;-73
2022/01/14 06:32:16;;;;;;;23.05;11.40;;;-1.00;99.90;;;;;;4157773;28;20092;-75
2022/01/14 06:34:17;;;;;;;22.23;10.95;;;-1.00;99.90;;;;;;4166370;28;20049;-76
2022/01/14 06:36:19;;;;;;;23.33;10.70;;;-1.00;99.90;;;;;;4166889;28;20056;-74
2022/01/14 06:38:21;;;;;;;23.92;12.35;;;-0.90;99.90;;;;;;4166424;28;20045;-74
2022/01/14 06:40:24;;;;;;;19.40;10.88;;;-1.00;99.90;;;;;;4167689;28;20076;-73
2022/01/14 06:42:26;;;;;;;19.85;10.02;;;-0.90;99.90;;;;;;4151864;28;20049;-73
2022/01/14 06:44:28;;;;;;;18.88;9.60;;;-0.90;99.90;;;;;;4154751;28;20057;-76
2022/01/14 06:46:30;;;;;;;17.05;9.38;;;-0.80;99.90;;;;;;4162368;28;20068;-73
2022/01/14 06:48:33;;;;;;;23.48;9.68;;;-0.90;99.90;;;;;;4168028;28;20089;-74
2022/01/14 06:50:36;;;;;;;19.80;9.60;;;-0.80;99.90;;;;;;4167676;28;20045;-75
2022/01/14 06:52:38;;;;;;;24.42;12.18;;;-0.80;99.90;;;;;;4166501;28;20082;-73
2022/01/14 06:54:40;;;;;;;23.55;12.98;;;-0.80;99.90;;;;;;4151230;28;20089;-73
2022/01/14 06:56:43;;;;;;;26.27;13.18;;;-0.80;99.90;;;;;;4151864;28;20069;-73
2022/01/14 06:58:46;;;;;;;23.03;12.87;;;-0.80;99.90;;;;;;4151714;28;20077;-73
2022/01/14 07:00:48;;;;;;;21.08;11.18;;;-0.80;99.90;;;;;;4167563;28;20316;-73
2022/01/14 07:02:50;;;;;;;20.27;10.70;;;-0.80;99.90;;;;;;4166922;28;20430;-73
2022/01/14 07:04:52;;;;;;;21.65;10.40;;;-0.70;99.90;;;;;;4166066;28;20144;-73
2022/01/14 07:06:54;;;;;;;21.63;10.10;;;-0.70;99.90;;;;;;4165321;28;20053;-73
2022/01/14 07:08:56;;;;;;;16.40;9.38;;;-0.80;99.90;;;;;;4149063;28;20045;-73
2022/01/14 07:10:58;;;;;;;17.63;10.15;;;-0.70;99.90;;;;;;4148596;28;20054;-73
2022/01/14 07:13:00;;;;;;;20.33;9.50;;;-0.70;99.90;;;;;;4162679;28;20049;-72
2022/01/14 07:15:08;;;;;;;19.73;9.82;;;-0.70;99.90;;;;;;4164773;28;20046;-72
2022/01/14 07:17:10;;;;;;;17.77;9.07;;;-0.70;99.90;;;;;;4163838;28;20669;-73
2022/01/14 07:19:12;;;;;;;24.55;10.07;;;-0.70;99.90;;;;;;4163749;28;20053;-72
2022/01/14 07:21:15;;;;;;;19.58;10.60;;;-0.70;99.90;;;;;;4164622;28;20147;-72
2022/01/14 07:23:17;;;;;;;20.45;9.65;;;-0.50;99.90;;;;;;4149587;28;20042;-72
2022/01/14 07:25:20;;;;;;;22.80;10.15;;;-0.60;99.90;;;;;;4150757;28;20725;-72
2022/01/14 07:27:21;;;;;;;18.17;9.40;;;-0.60;99.90;;;;;;4149428;28;20615;-72
2022/01/14 07:29:23;;;;;;;22.42;10.05;;;-0.60;99.90;;;;;;4161924;28;20482;-72
2022/01/14 07:31:25;;;;;;;20.45;10.60;;;-0.70;99.90;;;;;;4163665;28;20046;-72
2022/01/14 07:33:27;;;;;;;21.27;10.82;;;-0.70;99.90;;;;;;4158146;28;20068;-72
2022/01/14 07:35:29;;;;;;;19.85;10.18;;;-0.70;99.90;;;;;;4157955;28;20085;-72
2022/01/14 07:37:31;;;;;;;25.75;10.30;;;-0.70;99.90;;;;;;4164685;28;20080;-73
2022/01/14 07:39:33;;;;;;;16.77;9.48;;;-0.80;99.90;;;;;;4159660;28;20081;-74
2022/01/14 07:41:36;;;;;;;21.13;11.13;;;-0.80;99.90;;;;;;4159844;28;20552;-73
2022/01/14 07:43:38;;;;;;;19.35;10.77;;;-0.80;99.90;;;;;;4157314;28;20088;-71
2022/01/14 07:45:40;;;;;;;20.45;10.07;;;-0.80;99.90;;;;;;4160593;28;20129;-70
2022/01/14 07:47:42;;;;;;;25.77;11.20;;;-0.80;99.90;;;;;;4162838;28;20085;-71
2022/01/14 07:49:44;;;;;;;20.45;11.25;;;-0.80;99.90;;;;;;4156746;28;20041;-71
2022/01/14 07:51:45;;;;;;;23.83;12.25;;;-0.80;99.90;;;;;;4154248;28;20128;-71
2022/01/14 07:53:47;;;;;;;23.73;12.50;;;-0.80;99.90;;;;;;4155208;28;20085;-71
2022/01/14 07:55:50;;;;;;;33.13;17.80;;;-0.80;99.90;;;;;;4159128;28;20058;-72
2022/01/14 07:57:51;;;;;;;31.95;16.60;;;-0.80;99.90;;;;;;4166078;28;20064;-71
2022/01/14 07:59:53;;;;;;;36.95;17.77;;;-0.80;99.90;;;;;;4157067;28;20072;-71
2022/01/14 08:01:58;;;;;;;21.92;12.20;;;-0.80;99.90;;;;;;4163151;28;20514;-71
2022/01/14 08:04:00;;;;;;;23.52;11.82;;;-0.80;99.90;;;;;;4158043;28;20057;-71
2022/01/14 08:06:04;;;;;;;20.33;11.68;;;-0.80;99.90;;;;;;4157623;28;20050;-72
2022/01/14 08:08:07;;;;;;;27.20;11.50;;;-0.80;99.90;;;;;;4164319;28;20037;-72
2022/01/14 08:10:11;;;;;;;24.80;11.88;;;-0.70;99.90;;;;;;4157854;28;20096;-72
2022/01/14 08:12:13;;;;;;;22.85;11.30;;;-0.70;99.90;;;;;;4159370;28;20429;-73
2022/01/14 08:14:15;;;;;;;27.33;12.25;;;-0.60;99.90;;;;;;4159284;28;20100;-72
2022/01/14 08:16:17;;;;;;;27.48;12.52;;;-0.60;99.90;;;;;;4161023;28;20120;-72
2022/01/14 08:18:19;;;;;;;27.30;12.75;;;-0.50;99.90;;;;;;4156868;28;20081;-71
2022/01/14 08:20:21;;;;;;;27.10;12.82;;;-0.50;99.90;;;;;;4155669;28;20128;-73
2022/01/14 08:22:23;;;;;;;33.60;13.15;;;-0.50;99.90;;;;;;4160991;28;20129;-73
2022/01/14 08:24:25;;;;;;;33.75;13.15;;;-0.50;99.90;;;;;;4160291;28;20045;-72
2022/01/14 08:26:27;;;;;;;31.50;11.90;;;-0.40;99.90;;;;;;4161146;28;20124;-73
2022/01/14 08:28:29;;;;;;;38.25;14.48;;;-0.40;99.90;;;;;;4154286;28;20057;-73
2022/01/14 08:30:31;;;;;;;32.72;11.80;;;-0.40;99.90;;;;;;4164174;28;20046;-72
2022/01/14 08:32:34;;;;;;;23.10;11.10;;;-0.40;99.90;;;;;;4158498;28;20222;-72
2022/01/14 08:34:36;;;;;;;39.63;11.80;;;-0.40;99.90;;;;;;4160142;28;20449;-73
2022/01/14 08:36:38;;;;;;;33.55;11.10;;;-0.40;99.90;;;;;;4158662;28;20580;-72
2022/01/14 08:38:40;;;;;;;21.30;10.95;;;-0.30;99.90;;;;;;4156205;28;20073;-72
2022/01/14 08:40:42;;;;;;;37.35;11.68;;;-0.30;99.90;;;;;;4157369;28;20129;-73
2022/01/14 08:42:47;;;;;;;41.72;11.00;;;-0.30;99.90;;;;;;4156595;28;20136;-72
2022/01/14 08:44:49;;;;;;;33.47;10.60;;;-0.20;99.90;;;;;;4160198;28;20069;-70
2022/01/14 08:46:52;;;;;;;27.73;11.25;;;-0.20;99.90;;;;;;4154646;28;20712;-72
2022/01/14 08:48:56;;;;;;;31.02;11.85;;;-0.20;99.90;;;;;;4157032;28;20058;-71
2022/01/14 08:50:58;;;;;;;19.98;8.10;;;-0.20;99.90;;;;;;4156480;28;20395;-70
2022/01/14 08:53:04;;;;;;;16.17;7.43;;;0.00;99.90;;;;;;4158268;28;20049;-71
2022/01/14 08:55:06;;;;;;;17.58;7.85;;;0.40;99.90;;;;;;4154972;28;20058;-71
2022/01/14 08:57:09;;;;;;;17.70;7.85;;;0.80;99.90;;;;;;4155770;28;20085;-72
2022/01/14 08:59:11;;;;;;;14.68;8.07;;;1.10;99.90;;;;;;4159698;28;20108;-71
2022/01/14 09:01:12;;;;;;;16.13;8.18;;;1.20;99.90;;;;;;4153766;28;20124;-73
2022/01/14 09:03:15;;;;;;;17.65;8.30;;;1.30;99.90;;;;;;4157710;28;20073;-75
2022/01/14 09:05:17;;;;;;;20.25;9.40;;;1.30;99.90;;;;;;4153464;28;20054;-71
2022/01/14 09:07:19;;;;;;;19.30;9.95;;;1.50;99.90;;;;;;4162470;28;20053;-70
2022/01/14 09:09:21;;;;;;;19.00;9.38;;;1.60;99.90;;;;;;4157276;28;21319;-71
2022/01/14 09:11:23;;;;;;;21.40;9.40;;;1.60;99.90;;;;;;4164624;28;20469;-71
2022/01/14 09:13:25;;;;;;;35.38;10.15;;;1.60;99.90;;;;;;4163770;28;20639;-70
2022/01/14 09:15:27;;;;;;;58.65;12.52;;;1.50;99.90;;;;;;4164099;28;20054;-71
2022/01/14 09:17:29;;;;;;;44.58;11.15;;;1.30;99.90;;;;;;4152099;28;20064;-72
2022/01/14 09:19:31;;;;;;;28.92;10.50;;;1.10;99.90;;;;;;4164840;28;20092;-71
2022/01/14 09:21:33;;;;;;;22.50;9.80;;;0.90;99.90;;;;;;4177241;28;20504;-71
2022/01/14 09:23:37;;;;;;;27.92;12.15;;;0.80;99.90;;;;;;4162482;28;20042;-71
2022/01/14 09:25:39;;;;;;;32.38;11.40;;;0.70;99.90;;;;;;4164887;28;20048;-70
2022/01/14 09:27:41;;;;;;;31.33;12.00;;;0.60;99.90;;;;;;4163275;28;20065;-71
2022/01/14 09:29:43;;;;;;;34.42;11.45;;;0.60;99.90;;;;;;4183442;28;20128;-76
2022/01/14 09:31:45;;;;;;;31.92;11.70;;;0.60;99.90;;;;;;4170020;28;20072;-79
2022/01/14 09:33:47;;;;;;;38.97;13.05;;;0.60;99.90;;;;;;4165205;28;20603;-71
2022/01/14 09:35:49;;;;;;;23.77;12.25;;;0.60;99.90;;;;;;4148769;28;20045;-70
2022/01/14 09:37:51;;;;;;;32.20;13.50;;;0.60;99.90;;;;;;4149316;28;20088;-72
2022/01/14 09:39:59;;;;;;;33.97;13.20;;;0.60;99.90;;;;;;4153938;28;20045;-71
2022/01/14 09:42:01;;;;;;;24.45;13.25;;;0.60;99.90;;;;;;4164378;28;20061;-72
2022/01/14 09:44:04;;;;;;;36.28;14.10;;;0.60;99.90;;;;;;4164789;28;20050;-73
2022/01/14 09:46:08;;;;;;;34.00;13.48;;;0.60;99.90;;;;;;4155328;28;20057;-71
2022/01/14 09:48:14;;;;;;;24.05;14.15;;;0.70;99.90;;;;;;4150725;28;20061;-72
2022/01/14 09:50:16;;;;;;;;;;;0.70;99.90;;;;;;4164314;28;20056;-73
2022/01/14 09:52:19;;;;;;;24.95;11.48;;;0.70;99.90;;;;;;4165044;28;20093;-71
2022/01/14 09:54:21;;;;;;;30.88;12.25;;;0.80;99.90;;;;;;4183287;28;20049;-73
2022/01/14 09:56:24;;;;;;;30.33;12.27;;;0.90;99.90;;;;;;4165124;28;20080;-73
2022/01/14 09:58:28;;;;;;;27.83;11.20;;;1.00;99.90;;;;;;4150941;28;20076;-72
2022/01/14 10:00:30;;;;;;;21.88;11.02;;;1.00;99.90;;;;;;4159137;28;20092;-72
2022/01/14 10:02:34;;;;;;;33.85;17.13;;;1.10;99.90;;;;;;4167751;28;20056;-71
2022/01/14 10:04:40;;;;;;;35.30;13.85;;;1.10;99.90;;;;;;4150294;28;20050;-73
2022/01/14 10:06:49;;;;;;;26.00;10.55;;;1.20;99.90;;;;;;4170781;28;20052;-72
2022/01/14 10:09:12;;;;;;;22.98;10.45;;;1.40;99.90;;;;;;4157765;28;20477;-71
2022/01/14 10:11:13;;;;;;;25.77;11.07;;;1.50;99.90;;;;;;4164724;28;20089;-73
2022/01/14 10:13:19;;;;;;;19.42;10.60;;;1.60;99.90;;;;;;4159525;28;20061;-71
2022/01/14 10:15:21;;;;;;;21.35;10.38;;;1.70;99.90;;;;;;4166844;28;20060;-72
2022/01/14 10:17:25;;;;;;;21.27;10.48;;;1.70;99.90;;;;;;4168058;28;20045;-71
2022/01/14 10:19:29;;;;;;;24.60;11.45;;;1.80;99.90;;;;;;4170087;28;20091;-72
2022/01/14 10:21:33;;;;;;;22.98;11.32;;;1.90;99.90;;;;;;4169632;28;20073;-72
2022/01/14 10:23:42;;;;;;;26.42;13.05;;;2.00;99.90;;;;;;4170247;28;20618;-73
2022/01/14 10:25:57;;;;;;;24.15;12.32;;;2.10;99.90;;;;;;4167902;28;20048;-72
2022/01/14 10:27:59;;;;;;;35.80;18.77;;;2.20;99.90;;;;;;4152755;28;20066;-71
2022/01/14 10:30:14;;;;;;;33.63;16.70;;;2.30;99.90;;;;;;4160265;28;20052;-73
2022/01/14 10:32:19;;;;;;;24.52;15.65;;;2.50;99.90;;;;;;4161481;28;20056;-73
2022/01/14 10:34:21;;;;;;;34.20;14.93;;;2.60;99.90;;;;;;4164376;28;20049;-73
2022/01/14 10:36:23;;;;;;;35.55;17.98;;;2.60;99.90;;;;;;4180494;28;20152;-73
2022/01/14 10:38:35;;;;;;;39.28;21.67;;;2.70;99.90;;;;;;4168848;28;20049;-73
2022/01/14 10:40:44;;;;;;;64.30;28.65;;;2.70;99.90;;;;;;4152411;28;20104;-73
2022/01/14 10:42:50;;;;;;;43.67;22.08;;;2.80;99.90;;;;;;4165326;28;20045;-73
2022/01/14 10:45:19;;;;;;;50.30;22.83;;;2.90;99.90;;;;;;4161965;28;20088;-76
2022/01/14 10:47:25;;;;;;;41.25;19.48;;;2.90;99.90;;;;;;4162086;28;20053;-72
2022/01/14 10:49:33;;;;;;;48.08;20.55;;;3.10;99.90;;;;;;4159496;28;20757;-73
2022/01/14 10:52:13;;;;;;;26.90;12.75;;;3.20;99.90;;;;;;4164455;28;20080;-73
2022/01/14 10:54:38;;;;;;;22.48;10.07;;;3.40;99.90;;;;;;4153644;28;20046;-72
2022/01/14 10:56:40;;;;;;;16.27;8.50;;;3.50;99.90;;;;;;4152521;28;20061;-73
2022/01/14 10:58:44;;;;;;;13.93;7.47;;;3.50;99.90;;;;;;4174503;28;20477;-72
2022/01/14 11:00:48;;;;;;;14.13;8.23;;;3.50;99.90;;;;;;4158107;28;20083;-77
2022/01/14 11:02:53;;;;;;;16.57;7.27;;;3.60;99.90;;;;;;4165477;28;20037;-73
2022/01/14 11:05:12;;;;;;;13.90;7.35;;;3.70;99.90;;;;;;4164021;28;20052;-73
2022/01/14 11:07:23;;;;;;;13.18;7.00;;;3.80;99.90;;;;;;4165603;28;20077;-75
2022/01/14 11:09:25;;;;;;;13.10;7.57;;;3.80;99.90;;;;;;4163763;28;20148;-73